createdAt,value
2019-05-19T00:00:05.353Z,100774.64
2019-05-19T00:02:32.358Z,100777.36
2019-05-19T00:04:59.347Z,100768.55
2019-05-19T00:07:26.409Z,100767.23
2019-05-19T00:09:53.432Z,100769.06
2019-05-19T00:12:20.439Z,100775.21
2019-05-19T00:14:47.466Z,100770.38
2019-05-19T00:17:14.466Z,100771.77
2019-05-19T00:19:41.510Z,100774.10
2019-05-19T00:22:08.520Z,100771.95
2019-05-19T00:24:35.512Z,100775.95
2019-05-19T00:27:02.641Z,100775.08
2019-05-19T00:29:29.663Z,100755.66
2019-05-19T00:31:56.775Z,100760.52
2019-05-19T00:34:23.847Z,100758.31
2019-05-19T00:36:50.857Z,100752.50
2019-05-19T00:39:17.889Z,100756.43
2019-05-19T00:41:44.891Z,100761.16
2019-05-19T00:44:11.925Z,100762.52
2019-05-19T00:46:38.997Z,100756.75
2019-05-19T00:49:05.996Z,100753.13
2019-05-19T00:51:33.523Z,100757.98
2019-05-19T00:54:00.561Z,100753.53
2019-05-19T00:56:27.778Z,100754.83
2019-05-19T00:58:57.033Z,100753.75
2019-05-19T01:01:24.047Z,100748.55
2019-05-19T01:03:51.061Z,100752.56
2019-05-19T01:06:18.104Z,100748.61
2019-05-19T01:08:45.115Z,100755.72
2019-05-19T01:11:12.154Z,100748.67
2019-05-19T01:13:39.180Z,100746.03
2019-05-19T01:16:06.193Z,100747.73
2019-05-19T01:18:33.202Z,100750.32
2019-05-19T01:21:00.454Z,100748.11
2019-05-19T01:23:27.520Z,100744.55
2019-05-19T01:25:54.573Z,100744.01
2019-05-19T01:28:21.624Z,100740.16
2019-05-19T01:30:48.691Z,100752.94
2019-05-19T01:33:15.730Z,100740.98
2019-05-19T01:35:42.765Z,100739.16
2019-05-19T01:38:09.784Z,100740.89
2019-05-19T01:40:36.790Z,100744.02
2019-05-19T01:43:03.815Z,100738.27
2019-05-19T01:45:30.826Z,100744.86
2019-05-19T01:47:57.834Z,100734.20
2019-05-19T01:50:24.887Z,100734.92
2019-05-19T01:52:51.916Z,100742.45
2019-05-19T01:55:18.923Z,100741.64
2019-05-19T01:57:45.949Z,100733.72
2019-05-19T02:00:13.181Z,100744.73
2019-05-19T02:02:40.231Z,100739.84
2019-05-19T02:05:07.809Z,100741.09
2019-05-19T02:07:34.829Z,100732.81
2019-05-19T02:10:02.213Z,100744.19
2019-05-19T02:12:29.448Z,100748.42
2019-05-19T02:14:56.460Z,100742.31
2019-05-19T02:17:23.513Z,100738.72
2019-05-19T02:19:50.553Z,100736.36
2019-05-19T02:22:17.574Z,100731.95
2019-05-19T02:24:44.617Z,100737.28
2019-05-19T02:27:11.660Z,100734.48
2019-05-19T02:29:38.682Z,100730.08
2019-05-19T02:32:05.755Z,100723.83
2019-05-19T02:34:32.903Z,100736.91
2019-05-19T02:36:59.877Z,100740.55
2019-05-19T02:39:26.906Z,100738.96
2019-05-19T02:41:55.684Z,100734.55
2019-05-19T02:44:23.816Z,100736.47
2019-05-19T02:46:52.148Z,100737.80
2019-05-19T02:49:19.928Z,100729.85
2019-05-19T02:51:49.248Z,100735.19
2019-05-19T02:54:18.623Z,100728.13
2019-05-19T02:56:47.237Z,100733.42
2019-05-19T02:59:15.270Z,100728.09
2019-05-19T03:02:06.874Z,100727.12
2019-05-19T03:04:35.077Z,100719.15
2019-05-19T03:07:02.163Z,100726.97
2019-05-19T03:09:29.170Z,100732.30
2019-05-19T03:11:56.173Z,100733.98
2019-05-19T03:14:23.210Z,100726.00
2019-05-19T03:16:50.229Z,100725.13
2019-05-19T03:19:17.251Z,100722.88
2019-05-19T03:21:44.283Z,100722.03
2019-05-19T03:24:11.317Z,100725.91
2019-05-19T03:26:38.350Z,100728.34
2019-05-19T03:29:05.695Z,100728.70
2019-05-19T03:31:40.212Z,100728.03
2019-05-19T03:34:07.295Z,100727.68
2019-05-19T03:36:34.335Z,100730.23
2019-05-19T03:39:01.365Z,100734.33
2019-05-19T03:41:28.485Z,100736.78
2019-05-19T03:43:55.545Z,100737.17
2019-05-19T03:46:22.562Z,100737.17
2019-05-19T03:48:49.580Z,100741.19
2019-05-19T03:51:30.395Z,100741.29
2019-05-19T03:53:45.600Z,100738.83
2019-05-19T03:56:12.642Z,100741.61
2019-05-19T03:58:39.663Z,100740.24
2019-05-19T04:01:06.794Z,100738.44
2019-05-19T04:03:33.825Z,100739.53
2019-05-19T04:06:00.881Z,100744.39
2019-05-19T04:08:27.925Z,100743.55
2019-05-19T04:10:54.959Z,100750.20
2019-05-19T04:13:22.004Z,100746.59
2019-05-19T04:15:49.169Z,100736.01
2019-05-19T04:18:16.184Z,100737.77
2019-05-19T04:20:43.215Z,100736.84
2019-05-19T04:23:10.285Z,100741.17
2019-05-19T04:25:37.303Z,100735.39
2019-05-19T04:28:04.314Z,100743.33
2019-05-19T04:30:31.372Z,100741.13
2019-05-19T04:32:58.449Z,100740.33
2019-05-19T04:35:25.487Z,100738.61
2019-05-19T04:37:52.514Z,100744.39
2019-05-19T04:40:19.564Z,100742.14
2019-05-19T04:42:46.585Z,100748.48
2019-05-19T04:45:13.693Z,100741.42
2019-05-19T04:47:40.723Z,100738.56
2019-05-19T04:50:07.738Z,100739.41
2019-05-19T04:52:34.744Z,100742.53
2019-05-19T04:55:01.932Z,100736.75
2019-05-19T04:57:28.952Z,100737.32
2019-05-19T04:59:56.001Z,100745.09
2019-05-19T05:02:23.088Z,100749.35
2019-05-19T05:04:50.117Z,100745.58
2019-05-19T05:07:17.168Z,100742.73
2019-05-19T05:09:44.219Z,100752.18
2019-05-19T05:12:11.662Z,100747.84
2019-05-19T05:14:38.674Z,100746.92
2019-05-19T05:17:05.698Z,100745.67
2019-05-19T05:19:32.701Z,100754.97
2019-05-19T05:21:59.732Z,100749.67
2019-05-19T05:24:28.686Z,100752.88
2019-05-19T05:26:55.732Z,100754.85
2019-05-19T05:29:22.773Z,100753.66
2019-05-19T05:31:49.820Z,100753.28
2019-05-19T05:34:16.880Z,100758.17
2019-05-19T05:36:43.894Z,100757.33
2019-05-19T05:39:10.939Z,100763.00
2019-05-19T05:41:37.943Z,100767.01
2019-05-19T05:44:05.055Z,100776.78
2019-05-19T05:46:32.077Z,100775.47
2019-05-19T05:48:59.093Z,100791.09
2019-05-19T05:51:26.122Z,100781.61
2019-05-19T05:53:53.163Z,100777.98
2019-05-19T05:56:20.189Z,100770.98
2019-05-19T05:58:47.231Z,100781.92
2019-05-19T06:01:14.256Z,100785.08
2019-05-19T06:03:41.320Z,100783.03
2019-05-19T06:06:08.392Z,100782.25
2019-05-19T06:08:35.427Z,100780.61
2019-05-19T06:11:02.469Z,100783.70
2019-05-19T06:13:29.571Z,100772.89
2019-05-19T06:15:56.627Z,100777.50
2019-05-19T06:18:24.027Z,100773.22
2019-05-19T06:20:51.191Z,100774.98
2019-05-19T06:23:18.239Z,100775.55
2019-05-19T06:25:45.293Z,100776.48
2019-05-19T06:28:12.383Z,100778.78
2019-05-19T06:30:39.480Z,100773.25
2019-05-19T06:33:06.532Z,100778.02
2019-05-19T06:35:33.622Z,100780.80
2019-05-19T06:38:00.653Z,100784.50
2019-05-19T06:40:27.717Z,100786.34
2019-05-19T06:42:54.975Z,100791.77
2019-05-19T06:45:22.021Z,100791.78
2019-05-19T06:47:49.280Z,100797.20
2019-05-19T06:50:19.131Z,100798.05
2019-05-19T06:52:46.221Z,100790.16
2019-05-19T06:55:13.804Z,100783.56
2019-05-19T06:57:40.865Z,100779.66
2019-05-19T07:00:08.347Z,100781.01
2019-05-19T07:02:35.389Z,100774.44
2019-05-19T07:05:02.747Z,100775.78
2019-05-19T07:07:29.776Z,100778.89
2019-05-19T07:09:58.763Z,100773.12
2019-05-19T07:12:25.808Z,100777.13
2019-05-19T07:14:52.863Z,100779.36
2019-05-19T07:17:19.939Z,100782.47
2019-05-19T07:19:46.999Z,100780.26
2019-05-19T07:22:14.066Z,100767.41
2019-05-19T07:24:41.162Z,100766.95
2019-05-19T07:27:08.338Z,100762.94
2019-05-19T07:29:35.374Z,100763.41
2019-05-19T07:32:02.521Z,100774.52
2019-05-19T07:34:29.692Z,100776.72
2019-05-19T07:37:02.856Z,100777.16
2019-05-19T07:39:32.427Z,100775.33
2019-05-19T07:41:59.501Z,100773.06
2019-05-19T07:44:26.508Z,100770.30
2019-05-19T07:46:53.835Z,100772.58
2019-05-19T07:49:20.893Z,100773.84
2019-05-19T07:51:47.900Z,100774.81
2019-05-19T07:54:14.974Z,100768.13
2019-05-19T07:56:42.025Z,100772.97
2019-05-19T07:59:09.066Z,100773.42
2019-05-19T08:01:36.180Z,100771.20
2019-05-19T08:04:03.257Z,100771.70
2019-05-19T08:06:30.322Z,100768.98
2019-05-19T08:08:57.435Z,100764.05
2019-05-19T08:11:27.225Z,100768.45
2019-05-19T08:13:54.326Z,100764.41
2019-05-19T08:16:21.397Z,100764.30
2019-05-19T08:18:48.492Z,100775.50
2019-05-19T08:21:15.539Z,100779.91
2019-05-19T08:23:58.535Z,100777.87
2019-05-19T08:26:11.582Z,100780.00
2019-05-19T08:28:38.679Z,100782.74
2019-05-19T08:31:05.745Z,100785.45
2019-05-19T08:33:33.199Z,100794.86
2019-05-19T08:36:00.318Z,100789.63
2019-05-19T08:38:30.382Z,100786.52
2019-05-19T08:40:57.434Z,100788.72
2019-05-19T08:43:24.481Z,100794.02
2019-05-19T08:45:55.841Z,100793.08
2019-05-19T08:48:23.009Z,100798.26
2019-05-19T08:50:50.035Z,100797.37
2019-05-19T08:53:17.126Z,100795.05
2019-05-19T08:55:44.164Z,100797.49
2019-05-19T08:58:11.233Z,100799.63
2019-05-19T09:00:38.755Z,100791.52
2019-05-19T09:03:06.034Z,100797.10
2019-05-19T09:05:33.127Z,100795.89
2019-05-19T09:08:00.270Z,100800.84
2019-05-19T09:10:27.355Z,100801.64
2019-05-19T09:12:54.435Z,100803.63
2019-05-19T09:15:21.531Z,100812.05
2019-05-19T09:17:48.581Z,100796.61
2019-05-19T09:20:15.856Z,100801.88
2019-05-19T09:22:42.954Z,100798.34
2019-05-19T09:25:10.047Z,100796.14
2019-05-19T09:27:37.125Z,100792.08
2019-05-19T09:30:05.141Z,100790.35
2019-05-19T09:32:32.249Z,100787.42
2019-05-19T09:35:02.376Z,100792.48
2019-05-19T09:37:29.444Z,100785.48
2019-05-19T09:39:56.513Z,100781.09
2019-05-19T09:42:23.614Z,100777.62
2019-05-19T09:44:50.712Z,100773.56
2019-05-19T09:47:17.786Z,100788.14
2019-05-19T09:49:44.853Z,100771.80
2019-05-19T09:52:16.540Z,100774.92
2019-05-19T09:54:45.090Z,100772.31
2019-05-19T09:57:10.229Z,100765.22
2019-05-19T09:59:37.313Z,100767.55
2019-05-19T10:02:04.345Z,100766.58
2019-05-19T10:04:31.505Z,100778.02
2019-05-19T10:06:58.537Z,100770.91
2019-05-19T10:09:55.254Z,100766.92
2019-05-19T10:12:22.318Z,100775.21
2019-05-19T10:14:49.363Z,100771.91
2019-05-19T10:17:16.431Z,100773.69
2019-05-19T10:19:43.486Z,100790.35
2019-05-19T10:22:10.589Z,100782.79
2019-05-19T10:24:37.734Z,100784.78
2019-05-19T10:27:04.783Z,100786.66
2019-05-19T10:29:31.825Z,100788.63
2019-05-19T10:31:58.876Z,100795.94
2019-05-19T10:34:26.005Z,100790.38
2019-05-19T10:36:53.144Z,100786.70
2019-05-19T10:39:20.240Z,100790.71
2019-05-19T10:41:47.265Z,100787.95
2019-05-19T10:44:14.330Z,100789.59
2019-05-19T10:46:41.365Z,100783.06
2019-05-19T10:49:08.379Z,100778.14
2019-05-19T10:51:35.443Z,100776.37
2019-05-19T10:54:02.507Z,100774.89
2019-05-19T10:56:29.576Z,100775.30
2019-05-19T10:58:56.650Z,100776.51
2019-05-19T11:01:23.689Z,100776.91
2019-05-19T11:03:50.736Z,100774.16
2019-05-19T11:06:17.787Z,100772.44
2019-05-19T11:08:44.819Z,100770.73
2019-05-19T11:11:11.854Z,100767.23
2019-05-19T11:13:38.958Z,100768.52
2019-05-19T11:16:05.972Z,100763.70
2019-05-19T11:18:33.031Z,100771.20
2019-05-19T11:21:00.138Z,100770.35
2019-05-19T11:23:27.286Z,100776.48
2019-05-19T11:25:54.362Z,100775.22
2019-05-19T11:28:21.408Z,100783.58
2019-05-19T11:30:48.417Z,100772.30
2019-05-19T11:33:15.438Z,100783.16
2019-05-19T11:35:42.488Z,100785.69
2019-05-19T11:38:09.612Z,100777.73
2019-05-19T11:40:36.637Z,100774.92
2019-05-19T11:43:03.725Z,100773.48
2019-05-19T11:45:30.766Z,100767.50
2019-05-19T11:47:57.779Z,100767.28
2019-05-19T11:50:24.821Z,100760.58
2019-05-19T11:52:51.857Z,100766.70
2019-05-19T11:55:18.871Z,100764.08
2019-05-19T11:57:45.918Z,100764.55
2019-05-19T12:00:13.376Z,100767.83
2019-05-19T12:02:40.449Z,100762.87
2019-05-19T12:05:07.759Z,100769.13
2019-05-19T12:07:34.799Z,100770.80
2019-05-19T12:10:01.849Z,100763.69
2019-05-19T12:12:28.895Z,100754.83
2019-05-19T12:14:55.934Z,100754.05
2019-05-19T12:17:22.943Z,100758.97
2019-05-19T12:19:49.987Z,100754.59
2019-05-19T12:22:17.003Z,100751.53
2019-05-19T12:24:44.127Z,100756.56
2019-05-19T12:27:11.194Z,100756.16
2019-05-19T12:29:38.222Z,100754.08
2019-05-19T12:32:05.279Z,100753.17
2019-05-19T12:34:32.400Z,100754.95
2019-05-19T12:36:59.493Z,100752.34
2019-05-19T12:39:26.603Z,100752.42
2019-05-19T12:41:53.666Z,100744.00
2019-05-19T12:44:20.685Z,100743.59
2019-05-19T12:46:47.764Z,100741.89
2019-05-19T12:49:14.841Z,100750.31
2019-05-19T12:51:41.887Z,100742.72
2019-05-19T12:54:08.940Z,100737.58
2019-05-19T12:56:39.824Z,100733.56
2019-05-19T12:59:04.947Z,100734.02
2019-05-19T13:01:31.975Z,100735.37
2019-05-19T13:03:59.016Z,100743.75
2019-05-19T13:06:26.045Z,100745.18
2019-05-19T13:08:53.063Z,100740.23
2019-05-19T13:11:20.209Z,100733.92
2019-05-19T13:13:47.235Z,100731.13
2019-05-19T13:16:14.282Z,100728.09
2019-05-19T13:18:41.363Z,100734.59
2019-05-19T13:21:08.416Z,100727.95
2019-05-19T13:23:35.456Z,100719.11
2019-05-19T13:26:02.533Z,100721.52
2019-05-19T13:28:29.596Z,100729.84
2019-05-19T13:30:56.613Z,100713.11
2019-05-19T13:33:23.676Z,100716.62
2019-05-19T13:35:50.775Z,100718.87
2019-05-19T13:38:17.878Z,100713.59
2019-05-19T13:40:44.931Z,100707.49
2019-05-19T13:43:11.976Z,100705.13
2019-05-19T13:45:39.013Z,100707.45
2019-05-19T13:48:06.143Z,100714.39
2019-05-19T13:50:33.173Z,100706.04
2019-05-19T13:53:00.199Z,100711.95
2019-05-19T13:55:27.242Z,100713.27
2019-05-19T13:57:54.244Z,100710.49
2019-05-19T14:00:21.369Z,100716.33
2019-05-19T14:02:48.436Z,100704.34
2019-05-19T14:05:15.457Z,100708.83
2019-05-19T14:07:42.514Z,100701.32
2019-05-19T14:10:09.671Z,100707.50
2019-05-19T14:12:36.687Z,100708.17
2019-05-19T14:15:04.379Z,100707.69
2019-05-19T14:17:31.567Z,100707.73
2019-05-19T14:19:58.576Z,100703.66
2019-05-19T14:22:25.621Z,100704.91
2019-05-19T14:24:52.636Z,100704.52
2019-05-19T14:27:29.169Z,100705.56
2019-05-19T14:29:48.725Z,100706.36
2019-05-19T14:32:15.738Z,100705.89
2019-05-19T14:34:42.768Z,100705.33
2019-05-19T14:37:09.809Z,100713.65
2019-05-19T14:39:36.835Z,100707.13
2019-05-19T14:42:07.660Z,100711.23
2019-05-19T14:44:34.689Z,100708.64
2019-05-19T14:47:01.726Z,100705.19
2019-05-19T14:49:28.813Z,100713.08
2019-05-19T14:51:55.816Z,100711.23
2019-05-19T14:54:22.832Z,100709.41
2019-05-19T14:56:49.902Z,100715.20
2019-05-19T14:59:16.924Z,100716.52
2019-05-19T15:01:43.967Z,100708.56
2019-05-19T15:04:10.990Z,100705.09
2019-05-19T15:06:38.000Z,100705.13
2019-05-19T15:09:05.803Z,100707.81
2019-05-19T15:11:32.819Z,100704.59
2019-05-19T15:13:59.830Z,100705.05
2019-05-19T15:16:27.733Z,100692.91
2019-05-19T15:18:54.758Z,100692.58
2019-05-19T15:21:21.793Z,100691.34
2019-05-19T15:23:48.825Z,100686.64
2019-05-19T15:26:15.863Z,100687.05
2019-05-19T15:28:42.867Z,100702.50
2019-05-19T15:31:09.908Z,100699.67
2019-05-19T15:33:38.670Z,100696.06
2019-05-19T15:36:06.337Z,100698.89
2019-05-19T15:38:33.609Z,100694.06
2019-05-19T15:41:00.776Z,100695.86
2019-05-19T15:43:27.799Z,100694.17
2019-05-19T15:45:54.811Z,100693.56
2019-05-19T15:48:21.823Z,100690.42
2019-05-19T15:50:48.992Z,100693.19
2019-05-19T15:53:16.009Z,100694.95
2019-05-19T15:55:43.067Z,100707.34
2019-05-19T15:58:16.497Z,100703.38
2019-05-19T16:00:39.055Z,100699.31
2019-05-19T16:03:06.126Z,100705.52
2019-05-19T16:05:33.141Z,100713.06
2019-05-19T16:08:00.220Z,100710.94
2019-05-19T16:10:27.346Z,100704.70
2019-05-19T16:12:54.318Z,100700.54
2019-05-19T16:15:22.396Z,100702.25
2019-05-19T16:17:49.412Z,100704.19
2019-05-19T16:20:16.773Z,100697.02
2019-05-19T16:22:43.785Z,100690.58
2019-05-19T16:25:11.202Z,100701.98
2019-05-19T16:27:38.253Z,100689.18
2019-05-19T16:30:05.812Z,100687.33
2019-05-19T16:32:32.822Z,100694.61
2019-05-19T16:34:59.858Z,100700.83
2019-05-19T16:37:26.931Z,100693.67
2019-05-19T16:39:53.956Z,100684.92
2019-05-19T16:42:20.996Z,100675.30
2019-05-19T16:44:48.030Z,100674.91
2019-05-19T16:47:15.063Z,100677.11
2019-05-19T16:49:42.176Z,100667.41
2019-05-19T16:52:09.219Z,100663.36
2019-05-19T16:54:38.750Z,100669.15
2019-05-19T16:57:05.823Z,100667.84
2019-05-19T16:59:32.860Z,100675.73
2019-05-19T17:01:59.902Z,100676.09
2019-05-19T17:04:26.956Z,100666.74
2019-05-19T17:06:54.138Z,100660.06
2019-05-19T17:09:21.209Z,100664.02
2019-05-19T17:11:48.249Z,100664.27
2019-05-19T17:14:15.321Z,100670.59
2019-05-19T17:16:43.199Z,100667.89
2019-05-19T17:19:10.249Z,100672.67
2019-05-19T17:21:37.276Z,100675.64
2019-05-19T17:24:04.344Z,100681.83
2019-05-19T17:26:31.419Z,100676.55
2019-05-19T17:29:00.958Z,100675.62
2019-05-19T17:31:27.422Z,100678.32
2019-05-19T17:33:54.471Z,100678.27
2019-05-19T17:36:21.552Z,100675.30
2019-05-19T17:38:48.623Z,100678.78
2019-05-19T17:41:15.656Z,100695.55
2019-05-19T17:43:42.762Z,100702.23
2019-05-19T17:46:09.777Z,100703.28
2019-05-19T17:48:36.803Z,100702.23
2019-05-19T17:51:03.967Z,100719.46
2019-05-19T17:53:31.024Z,100716.75
2019-05-19T17:55:58.837Z,100728.27
2019-05-19T17:58:26.947Z,100716.13
2019-05-19T18:00:53.975Z,100715.16
2019-05-19T18:03:21.759Z,100713.86
2019-05-19T18:05:48.800Z,100719.94
2019-05-19T18:08:15.801Z,100713.84
2019-05-19T18:10:42.858Z,100710.19
2019-05-19T18:13:09.940Z,100721.76
2019-05-19T18:15:36.985Z,100704.55
2019-05-19T18:18:04.030Z,100709.86
2019-05-19T18:20:33.931Z,100715.22
2019-05-19T18:23:00.938Z,100719.05
2019-05-19T18:25:28.007Z,100709.47
2019-05-19T18:27:55.274Z,100712.13
2019-05-19T18:30:22.318Z,100717.67
2019-05-19T18:32:49.370Z,100706.59
2019-05-19T18:35:16.373Z,100704.47
2019-05-19T18:37:43.466Z,100712.34
2019-05-19T18:40:10.516Z,100712.36
2019-05-19T18:42:37.538Z,100707.16
2019-05-19T18:45:04.654Z,100710.56
2019-05-19T18:47:31.730Z,100710.16
2019-05-19T18:49:58.798Z,100711.02
2019-05-19T18:52:25.855Z,100711.92
2019-05-19T18:54:52.935Z,100712.54
2019-05-19T18:57:20.002Z,100718.28
2019-05-19T18:59:47.911Z,100718.99
2019-05-19T19:02:15.266Z,100723.28
2019-05-19T19:04:42.275Z,100715.48
2019-05-19T19:07:09.313Z,100718.13
2019-05-19T19:09:36.307Z,100718.99
2019-05-19T19:12:03.354Z,100712.42
2019-05-19T19:14:30.429Z,100704.47
2019-05-19T19:16:57.435Z,100712.04
2019-05-19T19:19:24.458Z,100710.63
2019-05-19T19:21:51.487Z,100711.13
2019-05-19T19:24:18.496Z,100712.04
2019-05-19T19:26:45.538Z,100713.69
2019-05-19T19:29:12.571Z,100703.64
2019-05-19T19:31:47.981Z,100713.81
2019-05-19T19:34:08.551Z,100721.23
2019-05-19T19:36:35.680Z,100714.61
2019-05-19T19:39:04.234Z,100713.75
2019-05-19T19:41:31.294Z,100719.41
2019-05-19T19:43:58.310Z,100732.30
2019-05-19T19:46:25.321Z,100738.84
2019-05-19T19:48:52.346Z,100733.06
2019-05-19T19:51:19.421Z,100738.61
2019-05-19T19:53:46.430Z,100733.92
2019-05-19T19:56:13.454Z,100726.91
2019-05-19T19:58:40.529Z,100732.74
2019-05-19T20:01:07.593Z,100743.31
2019-05-19T20:03:39.802Z,100734.04
2019-05-19T20:06:04.025Z,100747.13
2019-05-19T20:08:31.055Z,100741.45
2019-05-19T20:10:58.142Z,100742.43
2019-05-19T20:13:25.175Z,100744.98
2019-05-19T20:15:52.207Z,100750.89
2019-05-19T20:18:19.273Z,100756.50
2019-05-19T20:20:46.293Z,100753.41
2019-05-19T20:23:13.329Z,100763.28
2019-05-19T20:25:40.407Z,100765.17
2019-05-19T20:28:07.445Z,100770.56
2019-05-19T20:30:36.413Z,100764.88
2019-05-19T20:33:03.519Z,100774.22
2019-05-19T20:35:31.854Z,100776.02
2019-05-19T20:37:58.960Z,100776.88
2019-05-19T20:40:26.028Z,100782.17
2019-05-19T20:42:53.040Z,100787.92
2019-05-19T20:45:20.095Z,100799.44
2019-05-19T20:47:47.152Z,100806.51
2019-05-19T20:50:14.183Z,100806.92
2019-05-19T20:52:41.203Z,100805.59
2019-05-19T20:55:08.214Z,100803.80
2019-05-19T20:57:35.269Z,100795.81
2019-05-19T21:00:02.553Z,100790.04
2019-05-19T21:02:29.622Z,100789.59
2019-05-19T21:04:56.630Z,100783.31
2019-05-19T21:07:23.651Z,100787.30
2019-05-19T21:09:50.686Z,100790.80
2019-05-19T21:12:17.710Z,100789.41
2019-05-19T21:14:44.750Z,100790.23
2019-05-19T21:17:11.774Z,100792.41
2019-05-19T21:19:38.935Z,100789.77
2019-05-19T21:22:05.924Z,100792.85
2019-05-19T21:24:32.956Z,100796.32
2019-05-19T21:27:00.051Z,100796.25
2019-05-19T21:29:27.080Z,100800.20
2019-05-19T21:31:54.090Z,100793.57
2019-05-19T21:34:21.172Z,100800.61
2019-05-19T21:36:48.306Z,100801.83
2019-05-19T21:39:15.348Z,100805.83
2019-05-19T21:41:42.461Z,100803.19
2019-05-19T21:44:09.493Z,100812.05
2019-05-19T21:46:36.483Z,100812.12
2019-05-19T21:49:03.554Z,100793.06
2019-05-19T21:51:30.592Z,100797.03
2019-05-19T21:53:57.640Z,100798.77
2019-05-19T21:56:24.690Z,100794.32
2019-05-19T21:58:51.727Z,100806.65
2019-05-19T22:01:23.143Z,100801.42
2019-05-19T22:03:47.871Z,100796.02
2019-05-19T22:06:15.719Z,100790.31
2019-05-19T22:08:42.763Z,100779.20
2019-05-19T22:11:09.840Z,100778.39
2019-05-19T22:13:36.906Z,100769.08
2019-05-19T22:16:13.011Z,100766.88
2019-05-19T22:18:32.921Z,100767.69
2019-05-19T22:21:00.017Z,100764.12
2019-05-19T22:23:27.022Z,100768.57
2019-05-19T22:25:54.080Z,100765.00
2019-05-19T22:28:21.123Z,100771.63
2019-05-19T22:30:48.165Z,100761.41
2019-05-19T22:33:15.189Z,100760.48
2019-05-19T22:35:42.238Z,100749.67
2019-05-19T22:38:09.774Z,100745.81
2019-05-19T22:40:36.909Z,100756.00
2019-05-19T22:43:03.932Z,100749.52
2019-05-19T22:45:31.030Z,100743.34
2019-05-19T22:47:58.043Z,100734.95
2019-05-19T22:50:25.120Z,100728.45
2019-05-19T22:52:52.126Z,100726.62
2019-05-19T22:55:19.261Z,100719.94
2019-05-19T22:57:46.319Z,100716.47
2019-05-19T23:00:15.177Z,100705.02
2019-05-19T23:02:42.225Z,100711.17
2019-05-19T23:05:09.563Z,100709.44
2019-05-19T23:07:36.668Z,100699.44
2019-05-19T23:10:04.476Z,100698.17
2019-05-19T23:12:31.507Z,100690.78
2019-05-19T23:14:58.645Z,100687.75
2019-05-19T23:17:25.650Z,100678.88
2019-05-19T23:19:52.690Z,100677.17
2019-05-19T23:22:19.790Z,100666.12
2019-05-19T23:24:46.895Z,100672.33
2019-05-19T23:27:13.925Z,100678.11
2019-05-19T23:29:40.980Z,100678.94
2019-05-19T23:32:08.027Z,100679.82
2019-05-19T23:34:35.243Z,100677.99
2019-05-19T23:37:02.326Z,100678.94
2019-05-19T23:39:29.503Z,100680.62
2019-05-19T23:41:56.587Z,100682.13
2019-05-19T23:44:23.675Z,100677.36
2019-05-19T23:46:50.687Z,100686.07
2019-05-19T23:49:17.754Z,100698.47
2019-05-19T23:51:44.851Z,100687.52
2019-05-19T23:54:11.927Z,100687.04
2019-05-19T23:56:38.960Z,100688.37
2019-05-19T23:59:06.017Z,100687.05
